Time;durP1;ratioP1;P1;durP2;ratioP2;P2;SDS_P1;SDS_P2;PMS_P1;PMS_P2;Temp;Humidity;BMP_temperature;BMP_pressure;BME280_temperature;BME280_humidity;BME280_pressure;Samples;Min_cycle;Max_cycle;Signal;HPM_P1;HPM_P2
2023/05/20 00:00:25;;;;;;;12.98;5.10;;;13.40;99.90;;;;;;4953975;28;20118;-73
2023/05/20 00:02:51;;;;;;;13.63;5.18;;;13.40;99.90;;;;;;4954387;29;20045;-73
2023/05/20 00:05:16;;;;;;;12.75;5.63;;;13.40;99.90;;;;;;4953698;29;20015;-73
2023/05/20 00:07:42;;;;;;;14.10;5.13;;;13.40;99.90;;;;;;4953883;29;20034;-74
2023/05/20 00:10:09;;;;;;;9.60;5.40;;;13.40;99.90;;;;;;4953626;28;20031;-74
2023/05/20 00:12:37;;;;;;;14.35;5.38;;;13.30;99.90;;;;;;4954299;29;20027;-73
2023/05/20 00:15:02;;;;;;;12.10;5.50;;;13.30;99.90;;;;;;4955491;28;20019;-73
2023/05/20 00:17:28;;;;;;;15.98;5.40;;;13.30;99.90;;;;;;4954140;29;20454;-73
2023/05/20 00:19:54;;;;;;;12.88;5.18;;;13.20;99.90;;;;;;4954578;28;20085;-73
2023/05/20 00:22:19;;;;;;;14.65;5.93;;;13.20;99.90;;;;;;4954761;29;20592;-73
2023/05/20 00:24:45;;;;;;;11.00;5.45;;;13.20;99.90;;;;;;4955104;28;20106;-73
2023/05/20 00:27:11;;;;;;;15.02;5.45;;;13.20;99.90;;;;;;4942564;28;20094;-73
2023/05/20 00:29:36;;;;;;;14.95;5.93;;;13.10;99.90;;;;;;4953772;29;20217;-73
2023/05/20 00:32:02;;;;;;;11.57;5.53;;;13.10;99.90;;;;;;4953563;29;20031;-73
2023/05/20 00:34:27;;;;;;;10.48;5.20;;;13.10;99.90;;;;;;4954703;29;20031;-73
2023/05/20 00:36:53;;;;;;;17.65;6.03;;;13.10;99.90;;;;;;4945971;28;20106;-76
2023/05/20 00:39:18;;;;;;;13.35;5.63;;;13.10;99.90;;;;;;4953688;28;20031;-73
2023/05/20 00:41:44;;;;;;;14.23;5.65;;;13.00;99.90;;;;;;4953764;29;20396;-73
2023/05/20 00:44:10;;;;;;;13.45;5.70;;;13.00;99.90;;;;;;4954683;28;20042;-73
2023/05/20 00:46:36;;;;;;;13.50;5.95;;;13.00;99.90;;;;;;4946145;29;20023;-73
2023/05/20 00:49:01;;;;;;;17.00;6.03;;;13.00;99.90;;;;;;4948773;29;20055;-73
2023/05/20 00:51:27;;;;;;;17.00;5.57;;;13.00;99.90;;;;;;4951748;29;20027;-73
2023/05/20 00:53:53;;;;;;;19.98;6.30;;;13.00;99.90;;;;;;4953953;29;20051;-73
2023/05/20 00:56:20;;;;;;;10.50;5.47;;;12.90;99.90;;;;;;4940090;29;20039;-73
2023/05/20 00:58:46;;;;;;;12.48;5.95;;;12.90;99.90;;;;;;4953284;29;20027;-74
2023/05/20 01:01:12;;;;;;;13.93;5.78;;;12.90;99.90;;;;;;4952541;29;20089;-73
2023/05/20 01:03:38;;;;;;;17.27;6.07;;;12.90;99.90;;;;;;4954316;28;20028;-73
2023/05/20 01:06:04;;;;;;;13.95;5.90;;;12.80;99.90;;;;;;4950220;28;20027;-73
2023/05/20 01:08:30;;;;;;;20.63;6.30;;;12.80;99.90;;;;;;4954171;29;20019;-73
2023/05/20 01:11:08;;;;;;;15.90;6.03;;;12.80;99.90;;;;;;4949519;29;20093;-73
2023/05/20 01:13:50;;;;;;;15.75;5.70;;;12.80;99.90;;;;;;4947086;29;20082;-74
2023/05/20 01:16:17;;;;;;;14.50;5.97;;;12.80;99.90;;;;;;4940902;29;20569;-73
2023/05/20 01:18:43;;;;;;;10.27;5.93;;;12.70;99.90;;;;;;4954283;28;20441;-73
2023/05/20 01:21:12;;;;;;;11.43;6.35;;;12.70;99.90;;;;;;4952633;28;20031;-73
2023/05/20 01:23:39;;;;;;;13.48;6.47;;;12.70;99.90;;;;;;4949840;29;20470;-73
2023/05/20 01:26:05;;;;;;;13.43;6.05;;;12.70;99.90;;;;;;4951984;29;20037;-73
2023/05/20 01:28:32;;;;;;;14.82;5.82;;;12.60;99.90;;;;;;4945516;29;20103;-73
2023/05/20 01:31:00;;;;;;;16.27;6.38;;;12.60;99.90;;;;;;4947388;28;20517;-73
2023/05/20 01:33:28;;;;;;;16.75;6.50;;;12.60;99.90;;;;;;4947741;29;20048;-73
2023/05/20 01:35:55;;;;;;;14.30;6.28;;;12.60;99.90;;;;;;4946466;29;20509;-73
2023/05/20 01:38:22;;;;;;;14.95;6.53;;;12.60;99.90;;;;;;4928622;29;20027;-73
2023/05/20 01:40:48;;;;;;;17.08;7.05;;;12.50;99.90;;;;;;4951653;29;20131;-73
2023/05/20 01:43:16;;;;;;;17.13;7.18;;;12.50;99.90;;;;;;4945724;29;20018;-73
2023/05/20 01:45:43;;;;;;;14.80;6.90;;;12.50;99.90;;;;;;4942630;28;20027;-73
2023/05/20 01:48:10;;;;;;;15.00;6.28;;;12.50;99.90;;;;;;4945052;28;20059;-73
2023/05/20 01:50:37;;;;;;;16.13;6.72;;;12.50;99.90;;;;;;4937221;29;20028;-73
2023/05/20 01:53:03;;;;;;;17.70;7.47;;;12.50;99.90;;;;;;4953607;28;20102;-73
2023/05/20 01:55:28;;;;;;;17.05;7.00;;;12.50;99.90;;;;;;4953601;29;20129;-73
2023/05/20 01:57:54;;;;;;;15.45;6.55;;;12.50;99.90;;;;;;4950232;29;20031;-73
2023/05/20 02:00:19;;;;;;;17.17;7.35;;;12.50;99.90;;;;;;4949235;29;20082;-73
2023/05/20 02:02:45;;;;;;;15.15;7.00;;;12.50;99.90;;;;;;4952880;28;20094;-74
2023/05/20 02:05:11;;;;;;;19.00;6.75;;;12.50;99.90;;;;;;4952555;28;20471;-73
2023/05/20 02:07:36;;;;;;;16.17;6.53;;;12.50;99.90;;;;;;4942412;28;20434;-73
2023/05/20 02:10:02;;;;;;;16.48;6.47;;;12.50;99.90;;;;;;4953169;28;20023;-73
2023/05/20 02:12:28;;;;;;;15.93;7.03;;;12.50;99.90;;;;;;4939204;29;20165;-73
2023/05/20 02:14:54;;;;;;;14.02;6.75;;;12.50;99.90;;;;;;4940429;29;20019;-73
2023/05/20 02:17:20;;;;;;;17.75;6.78;;;12.50;99.90;;;;;;4951880;29;20118;-73
2023/05/20 02:19:46;;;;;;;17.13;6.45;;;12.50;99.90;;;;;;4951722;28;20023;-73
2023/05/20 02:22:12;;;;;;;12.32;6.35;;;12.40;99.90;;;;;;4950916;28;20482;-73
2023/05/20 02:24:37;;;;;;;15.65;6.85;;;12.40;99.90;;;;;;4951761;29;20027;-73
2023/05/20 02:27:05;;;;;;;17.85;6.68;;;12.40;99.90;;;;;;4953050;28;20391;-73
2023/05/20 02:29:30;;;;;;;12.00;6.05;;;12.40;99.90;;;;;;4953131;29;20031;-73
2023/05/20 02:31:56;;;;;;;16.58;7.38;;;12.40;99.90;;;;;;4952971;28;20034;-73
2023/05/20 02:34:22;;;;;;;15.65;6.38;;;12.40;99.90;;;;;;4946366;28;20383;-73
2023/05/20 02:36:48;;;;;;;15.13;6.70;;;12.30;99.90;;;;;;4948991;29;20870;-74
2023/05/20 02:39:14;;;;;;;16.00;7.30;;;12.40;99.90;;;;;;4944351;29;20481;-73
2023/05/20 02:41:39;;;;;;;18.65;7.07;;;12.40;99.90;;;;;;4952998;28;20031;-73
2023/05/20 02:44:05;;;;;;;14.52;7.30;;;12.40;99.90;;;;;;4939763;28;20051;-73
2023/05/20 02:46:31;;;;;;;14.82;6.97;;;12.40;99.90;;;;;;4935298;29;20035;-73
2023/05/20 02:48:56;;;;;;;12.38;6.43;;;12.40;99.90;;;;;;4937919;29;20099;-73
2023/05/20 02:51:22;;;;;;;13.52;7.28;;;12.40;99.90;;;;;;4935171;29;20031;-73
2023/05/20 02:53:48;;;;;;;14.93;7.00;;;12.40;99.90;;;;;;4947537;29;20102;-73
2023/05/20 02:56:14;;;;;;;13.68;7.15;;;12.40;99.90;;;;;;4952855;28;20094;-73
2023/05/20 02:58:40;;;;;;;13.98;7.25;;;12.40;99.90;;;;;;4952836;29;20024;-73
2023/05/20 03:01:06;;;;;;;17.10;6.78;;;12.30;99.90;;;;;;4949647;28;20049;-73
2023/05/20 03:03:32;;;;;;;16.60;7.50;;;12.40;99.90;;;;;;4940138;29;20028;-73
2023/05/20 03:05:57;;;;;;;16.90;7.07;;;12.40;99.90;;;;;;4950131;29;20023;-74
2023/05/20 03:08:23;;;;;;;14.13;6.55;;;12.40;99.90;;;;;;4939478;29;20480;-73
2023/05/20 03:10:49;;;;;;;15.98;6.75;;;12.40;99.90;;;;;;4944449;29;20115;-73
2023/05/20 03:13:15;;;;;;;14.32;7.05;;;12.40;99.90;;;;;;4944699;29;20375;-73
2023/05/20 03:15:41;;;;;;;17.65;7.32;;;12.40;99.90;;;;;;4952514;29;20023;-73
2023/05/20 03:18:07;;;;;;;14.13;6.50;;;12.40;99.90;;;;;;4952051;28;20023;-73
2023/05/20 03:20:35;;;;;;;14.65;6.72;;;12.40;99.90;;;;;;4952808;29;20372;-73
2023/05/20 03:23:01;;;;;;;14.85;6.82;;;12.40;99.90;;;;;;4952821;28;20025;-73
2023/05/20 03:25:27;;;;;;;15.93;6.72;;;12.40;99.90;;;;;;4949369;28;20078;-73
2023/05/20 03:27:53;;;;;;;18.75;6.80;;;12.40;99.90;;;;;;4950679;29;20103;-73
2023/05/20 03:30:19;;;;;;;18.60;6.60;;;12.40;99.90;;;;;;4944517;29;20023;-73
2023/05/20 03:32:45;;;;;;;17.98;7.28;;;12.30;99.90;;;;;;4944455;29;20510;-73
2023/05/20 03:35:11;;;;;;;14.57;6.45;;;12.30;99.90;;;;;;4948175;28;20028;-73
2023/05/20 03:37:37;;;;;;;16.38;6.75;;;12.30;99.90;;;;;;4955248;29;20020;-73
2023/05/20 03:40:05;;;;;;;15.88;6.88;;;12.30;99.90;;;;;;4956294;28;20051;-74
2023/05/20 03:42:31;;;;;;;13.25;6.90;;;12.30;99.90;;;;;;4955751;28;20026;-73
2023/05/20 03:44:59;;;;;;;15.00;6.22;;;12.30;99.90;;;;;;4956035;28;20030;-73
2023/05/20 03:47:24;;;;;;;14.50;6.57;;;12.30;99.90;;;;;;4955682;28;20475;-73
2023/05/20 03:49:50;;;;;;;15.05;6.25;;;12.30;99.90;;;;;;4946433;28;20027;-73
2023/05/20 03:52:16;;;;;;;18.27;7.25;;;12.30;99.90;;;;;;4950928;29;20056;-73
2023/05/20 03:54:41;;;;;;;18.92;6.72;;;12.30;99.90;;;;;;4954310;29;20027;-74
2023/05/20 03:57:09;;;;;;;17.60;6.90;;;12.30;99.90;;;;;;4955464;29;20095;-73
2023/05/20 03:59:35;;;;;;;15.55;6.93;;;12.30;99.90;;;;;;4942743;29;20051;-73
2023/05/20 04:02:01;;;;;;;12.35;6.70;;;12.30;99.90;;;;;;4952702;29;20026;-73
2023/05/20 04:04:27;;;;;;;14.00;6.32;;;12.30;99.90;;;;;;4953912;29;20024;-73
2023/05/20 04:06:53;;;;;;;13.43;6.93;;;12.30;99.90;;;;;;4955553;28;20074;-73
2023/05/20 04:09:19;;;;;;;17.88;7.78;;;12.30;99.90;;;;;;4955439;28;20019;-73
2023/05/20 04:11:44;;;;;;;16.63;7.05;;;12.20;99.90;;;;;;4952542;29;20058;-73
2023/05/20 04:14:10;;;;;;;13.48;6.93;;;12.20;99.90;;;;;;4950130;29;20028;-73
2023/05/20 04:16:36;;;;;;;15.52;6.53;;;12.20;99.90;;;;;;4954489;29;20094;-74
2023/05/20 04:19:02;;;;;;;15.77;7.15;;;12.20;99.90;;;;;;4951045;28;20090;-74
2023/05/20 04:21:28;;;;;;;12.32;7.32;;;12.20;99.90;;;;;;4953827;28;20031;-73
2023/05/20 04:23:54;;;;;;;16.33;7.55;;;12.20;99.90;;;;;;4944772;28;20026;-73
2023/05/20 04:26:20;;;;;;;14.95;7.28;;;12.20;99.90;;;;;;4945760;29;20066;-73
2023/05/20 04:28:48;;;;;;;15.10;7.20;;;12.20;99.90;;;;;;4951427;28;20020;-73
2023/05/20 04:31:14;;;;;;;15.98;7.55;;;12.20;99.90;;;;;;4952744;28;20034;-73
2023/05/20 04:33:39;;;;;;;16.63;7.78;;;12.20;99.90;;;;;;4951754;28;20040;-73
2023/05/20 04:36:10;;;;;;;12.77;7.78;;;12.20;99.90;;;;;;4951465;29;20023;-73
2023/05/20 04:38:37;;;;;;;12.73;6.75;;;12.30;99.90;;;;;;4954621;28;20096;-73
2023/05/20 04:41:02;;;;;;;14.90;7.38;;;12.30;99.90;;;;;;4954829;28;20502;-73
2023/05/20 04:43:28;;;;;;;18.58;8.60;;;12.30;99.90;;;;;;4954687;29;20066;-73
2023/05/20 04:45:58;;;;;;;18.50;7.40;;;12.20;99.90;;;;;;4947263;28;20094;-73
2023/05/20 04:48:24;;;;;;;18.75;7.80;;;12.30;99.90;;;;;;4945599;29;20023;-73
2023/05/20 04:50:53;;;;;;;15.77;7.80;;;12.30;99.90;;;;;;4945869;28;20538;-73
2023/05/20 04:53:20;;;;;;;17.88;7.88;;;12.30;99.90;;;;;;4945721;29;20031;-73
2023/05/20 04:55:47;;;;;;;14.45;7.78;;;12.30;99.90;;;;;;4950846;28;20048;-74
2023/05/20 04:58:16;;;;;;;14.55;7.93;;;12.30;99.90;;;;;;4954029;28;20034;-73
2023/05/20 05:00:45;;;;;;;16.08;8.00;;;12.40;99.90;;;;;;4949656;29;20043;-73
2023/05/20 05:03:11;;;;;;;15.45;8.10;;;12.40;99.90;;;;;;4954154;29;20038;-73
2023/05/20 05:05:38;;;;;;;18.23;7.97;;;12.40;99.90;;;;;;4946151;28;20051;-73
2023/05/20 05:08:07;;;;;;;13.35;7.55;;;12.40;99.90;;;;;;4943681;29;20019;-73
2023/05/20 05:10:33;;;;;;;17.00;8.35;;;12.40;99.90;;;;;;4947457;29;20610;-73
2023/05/20 05:12:59;;;;;;;19.75;7.97;;;12.40;99.90;;;;;;4943472;28;20046;-74
2023/05/20 05:15:25;;;;;;;17.42;8.02;;;12.50;99.90;;;;;;4954609;28;20023;-74
2023/05/20 05:17:50;;;;;;;12.48;7.65;;;12.50;99.90;;;;;;4954610;28;20035;-74
2023/05/20 05:20:16;;;;;;;12.77;7.72;;;12.50;99.90;;;;;;4954427;28;20026;-73
2023/05/20 05:22:43;;;;;;;13.63;7.55;;;12.60;99.90;;;;;;4953196;28;20023;-73
2023/05/20 05:25:09;;;;;;;14.07;7.72;;;12.60;99.90;;;;;;4951008;29;20042;-73
2023/05/20 05:27:35;;;;;;;21.70;8.00;;;12.70;99.90;;;;;;4946962;29;20058;-73
2023/05/20 05:30:02;;;;;;;15.73;6.88;;;12.70;99.90;;;;;;4941836;29;20059;-73
2023/05/20 05:32:27;;;;;;;17.08;7.13;;;12.80;99.90;;;;;;4944555;29;20032;-73
2023/05/20 05:34:53;;;;;;;21.85;7.25;;;12.90;99.90;;;;;;4946684;29;20038;-73
2023/05/20 05:37:19;;;;;;;17.50;7.57;;;12.90;99.90;;;;;;4952209;28;20022;-73
2023/05/20 05:39:44;;;;;;;13.10;6.70;;;12.90;99.90;;;;;;4944908;29;20023;-73
2023/05/20 05:42:10;;;;;;;18.85;7.28;;;12.90;99.90;;;;;;4953879;28;20050;-73
2023/05/20 05:44:35;;;;;;;15.63;7.28;;;13.00;99.90;;;;;;4952434;29;20114;-73
2023/05/20 05:47:02;;;;;;;15.07;7.25;;;13.00;99.90;;;;;;4954065;29;20093;-74
2023/05/20 05:49:27;;;;;;;13.95;6.53;;;13.10;99.90;;;;;;4945150;28;20058;-73
2023/05/20 05:51:53;;;;;;;16.55;7.07;;;13.20;99.90;;;;;;4946948;29;20077;-73
2023/05/20 05:54:21;;;;;;;13.30;6.78;;;13.20;99.90;;;;;;4953690;28;20026;-73
2023/05/20 05:56:47;;;;;;;13.20;6.45;;;13.30;99.90;;;;;;4953636;28;20059;-73
2023/05/20 05:59:14;;;;;;;15.05;7.20;;;13.30;99.90;;;;;;4953321;28;20015;-73
2023/05/20 06:01:40;;;;;;;13.15;6.40;;;13.40;99.90;;;;;;4951778;28;20039;-73
2023/05/20 06:04:05;;;;;;;15.02;7.28;;;13.40;99.90;;;;;;4952546;29;20050;-73
2023/05/20 06:06:32;;;;;;;14.40;7.75;;;13.50;99.90;;;;;;4952541;29;20470;-73
2023/05/20 06:08:57;;;;;;;13.48;6.65;;;13.60;99.90;;;;;;4951369;28;20023;-72
2023/05/20 06:11:23;;;;;;;14.38;7.00;;;13.60;99.90;;;;;;4946044;28;20038;-73
2023/05/20 06:13:49;;;;;;;19.63;7.47;;;13.60;99.90;;;;;;4949424;29;20019;-73
2023/05/20 06:16:15;;;;;;;11.00;6.45;;;13.60;99.90;;;;;;4951446;29;20054;-74
2023/05/20 06:18:41;;;;;;;13.40;7.30;;;13.70;99.90;;;;;;4952434;29;20121;-73
2023/05/20 06:21:07;;;;;;;11.85;6.70;;;13.70;99.90;;;;;;4948853;28;20066;-74
2023/05/20 06:23:33;;;;;;;18.08;7.03;;;13.80;99.90;;;;;;4950980;29;20023;-72
2023/05/20 06:25:59;;;;;;;13.15;6.38;;;13.80;99.90;;;;;;4953129;29;20043;-73
2023/05/20 06:28:25;;;;;;;13.35;6.05;;;13.90;99.90;;;;;;4947086;29;20023;-72
2023/05/20 06:30:53;;;;;;;12.90;6.18;;;13.90;99.90;;;;;;4946297;28;20114;-72
2023/05/20 06:33:19;;;;;;;14.77;6.10;;;14.00;99.90;;;;;;4946640;29;20070;-73
2023/05/20 06:35:45;;;;;;;11.98;5.60;;;14.10;99.90;;;;;;4937513;28;20405;-72
2023/05/20 06:38:12;;;;;;;13.80;5.80;;;14.20;99.90;;;;;;4944879;29;20550;-72
2023/05/20 06:40:37;;;;;;;12.77;5.60;;;14.20;99.90;;;;;;4939760;28;20020;-72
2023/05/20 06:43:03;;;;;;;14.63;5.63;;;14.30;99.90;;;;;;4948898;29;20067;-72
2023/05/20 06:45:28;;;;;;;11.13;5.55;;;14.40;99.90;;;;;;4943140;29;20052;-72
2023/05/20 06:47:54;;;;;;;13.80;5.25;;;14.40;99.90;;;;;;4952881;29;20086;-73
2023/05/20 06:50:20;;;;;;;11.63;5.05;;;14.50;99.90;;;;;;4953056;28;20023;-72
2023/05/20 06:52:46;;;;;;;9.80;4.68;;;14.60;99.90;;;;;;4939423;29;20499;-72
2023/05/20 06:55:11;;;;;;;12.85;4.93;;;14.60;99.90;;;;;;4953308;29;20360;-74
2023/05/20 06:57:37;;;;;;;13.50;4.60;;;14.80;99.90;;;;;;4949074;28;20019;-74
2023/05/20 07:00:04;;;;;;;10.15;5.22;;;14.90;99.90;;;;;;4942026;29;20043;-73
2023/05/20 07:02:32;;;;;;;14.52;4.80;;;14.90;99.90;;;;;;4938500;28;20024;-73
2023/05/20 07:04:58;;;;;;;12.55;4.90;;;15.00;99.90;;;;;;4951850;29;20106;-73
2023/05/20 07:07:23;;;;;;;11.70;4.30;;;15.10;99.90;;;;;;4948783;29;20108;-73
2023/05/20 07:09:49;;;;;;;10.13;4.50;;;15.20;99.90;;;;;;4950936;28;20446;-73
2023/05/20 07:12:15;;;;;;;9.85;4.65;;;15.30;99.90;;;;;;4953872;29;20706;-73
2023/05/20 07:14:42;;;;;;;9.90;4.72;;;15.40;99.90;;;;;;4955457;29;20185;-73
2023/05/20 07:17:07;;;;;;;10.00;4.78;;;15.50;99.90;;;;;;4946854;29;20043;-73
2023/05/20 07:19:33;;;;;;;9.18;4.43;;;15.70;99.90;;;;;;4950208;28;20124;-73
2023/05/20 07:21:59;;;;;;;8.90;4.63;;;15.80;99.90;;;;;;4955031;28;20019;-73
2023/05/20 07:24:25;;;;;;;7.75;4.32;;;15.90;99.90;;;;;;4956815;28;20031;-73
2023/05/20 07:26:51;;;;;;;11.65;4.47;;;16.00;99.90;;;;;;4956340;28;20215;-73
2023/05/20 07:29:16;;;;;;;9.05;4.60;;;16.10;99.90;;;;;;4943546;28;20079;-73
2023/05/20 07:31:42;;;;;;;11.00;4.57;;;16.30;99.90;;;;;;4956225;28;20082;-73
2023/05/20 07:34:08;;;;;;;10.43;4.25;;;16.30;99.90;;;;;;4945887;29;20459;-73
2023/05/20 07:36:34;;;;;;;8.73;4.38;;;16.50;99.90;;;;;;4949150;29;20027;-73
2023/05/20 07:38:59;;;;;;;9.35;4.50;;;16.50;99.90;;;;;;4956097;28;20431;-73
2023/05/20 07:41:25;;;;;;;8.35;4.80;;;16.70;99.90;;;;;;4955914;28;20447;-72
2023/05/20 07:43:51;;;;;;;10.32;4.05;;;16.80;99.90;;;;;;4953516;28;20066;-73
2023/05/20 07:46:17;;;;;;;9.88;4.30;;;17.00;99.90;;;;;;4945757;29;20023;-73
2023/05/20 07:48:43;;;;;;;8.02;4.10;;;17.10;99.90;;;;;;4956247;29;20035;-73
2023/05/20 07:51:10;;;;;;;8.32;4.38;;;17.30;99.90;;;;;;4953470;29;20026;-73
2023/05/20 07:53:36;;;;;;;10.13;3.97;;;17.40;99.90;;;;;;4952394;29;20112;-73
2023/05/20 07:56:02;;;;;;;7.47;4.10;;;17.50;99.90;;;;;;4951076;28;20470;-73
2023/05/20 07:58:27;;;;;;;9.60;4.20;;;17.60;99.90;;;;;;4952577;28;20027;-73
2023/05/20 08:00:53;;;;;;;9.02;4.05;;;17.60;99.90;;;;;;4966848;28;20047;-73
2023/05/20 08:03:21;;;;;;;6.63;3.97;;;17.80;99.90;;;;;;4948089;29;20030;-72
2023/05/20 08:05:46;;;;;;;8.05;3.80;;;17.80;99.90;;;;;;4955544;28;20344;-73
2023/05/20 08:08:12;;;;;;;7.22;3.90;;;17.90;99.90;;;;;;4952340;29;20016;-73
2023/05/20 08:10:37;;;;;;;8.57;4.05;;;18.00;99.90;;;;;;4948917;29;20391;-73
2023/05/20 08:13:03;;;;;;;12.32;3.80;;;18.10;99.90;;;;;;4952040;29;20356;-73
2023/05/20 08:15:29;;;;;;;12.90;3.97;;;18.20;99.90;;;;;;4946933;29;20031;-73
2023/05/20 08:17:55;;;;;;;6.78;4.20;;;18.20;99.90;;;;;;4951719;28;20027;-73
2023/05/20 08:20:20;;;;;;;8.55;4.10;;;18.40;99.90;;;;;;4954253;28;20431;-72
2023/05/20 08:22:46;;;;;;;11.70;3.67;;;18.50;99.90;;;;;;4954974;28;20032;-73
2023/05/20 08:25:11;;;;;;;5.70;3.67;;;18.70;99.90;;;;;;4955025;29;20070;-73
2023/05/20 08:27:37;;;;;;;9.25;3.75;;;18.80;99.90;;;;;;4954044;29;20426;-72
2023/05/20 08:30:04;;;;;;;8.10;3.85;;;18.80;99.90;;;;;;4954792;28;20474;-73
2023/05/20 08:32:30;;;;;;;8.30;3.97;;;18.90;99.90;;;;;;4954901;28;20031;-73
2023/05/20 08:34:56;;;;;;;4.03;3.30;;;19.10;99.90;;;;;;4954170;28;20028;-73
2023/05/20 08:37:21;;;;;;;8.07;3.67;;;19.20;99.90;;;;;;4945042;28;20495;-73
2023/05/20 08:39:48;;;;;;;7.68;3.35;;;19.10;99.90;;;;;;4949388;28;20048;-73
2023/05/20 08:42:15;;;;;;;8.30;3.28;;;19.20;99.90;;;;;;4945264;29;20046;-71
2023/05/20 08:44:45;;;;;;;6.57;3.42;;;19.30;99.90;;;;;;4953261;29;20166;-72
2023/05/20 08:47:11;;;;;;;10.32;3.30;;;19.40;99.90;;;;;;4937252;29;20039;-71
2023/05/20 08:49:37;;;;;;;8.80;3.00;;;19.40;99.90;;;;;;4951587;28;20032;-71
2023/05/20 08:52:04;;;;;;;6.43;2.78;;;19.40;99.90;;;;;;4948329;29;20064;-71
2023/05/20 08:54:45;;;;;;;7.63;3.30;;;19.50;99.90;;;;;;4954712;28;20043;-71
2023/05/20 08:57:12;;;;;;;6.35;3.03;;;19.60;99.90;;;;;;4955187;28;20050;-71
2023/05/20 08:59:41;;;;;;;6.45;3.00;;;19.70;99.90;;;;;;4954911;28;20052;-71
2023/05/20 09:02:09;;;;;;;6.00;2.83;;;19.90;99.90;;;;;;4954571;28;20037;-71
2023/05/20 09:04:35;;;;;;;7.05;2.85;;;19.90;99.90;;;;;;4952789;29;20074;-71
2023/05/20 09:07:01;;;;;;;7.10;2.83;;;20.00;99.90;;;;;;4940109;28;20019;-71
2023/05/20 09:09:26;;;;;;;5.55;2.90;;;20.10;99.90;;;;;;4951312;29;20122;-71
2023/05/20 09:11:52;;;;;;;7.95;2.92;;;20.20;99.90;;;;;;4953090;29;20108;-71
2023/05/20 09:14:18;;;;;;;4.93;2.80;;;20.20;99.90;;;;;;4952705;28;20414;-71
2023/05/20 09:16:43;;;;;;;5.05;2.88;;;20.40;99.90;;;;;;4942280;29;20023;-71
2023/05/20 09:19:09;;;;;;;6.25;2.75;;;20.50;99.20;;;;;;4953739;29;20060;-71
2023/05/20 09:21:36;;;;;;;5.82;2.88;;;20.50;98.60;;;;;;4948796;28;20043;-71
2023/05/20 09:24:01;;;;;;;6.72;3.20;;;20.60;98.70;;;;;;4951895;29;20416;-71
2023/05/20 09:26:28;;;;;;;4.07;2.65;;;20.70;98.50;;;;;;4950505;29;20125;-71
2023/05/20 09:28:57;;;;;;;11.02;2.97;;;20.70;97.70;;;;;;4947548;28;20020;-71
2023/05/20 09:31:32;;;;;;;7.22;3.13;;;20.70;97.10;;;;;;4953802;28;20102;-71
2023/05/20 09:33:59;;;;;;;6.93;2.63;;;20.60;96.50;;;;;;4944994;28;20529;-71
2023/05/20 09:36:27;;;;;;;7.07;2.70;;;20.60;95.70;;;;;;4946626;28;20144;-71
2023/05/20 09:38:56;;;;;;;7.50;2.60;;;20.60;95.20;;;;;;4950832;29;20024;-71
2023/05/20 09:41:23;;;;;;;4.05;2.20;;;20.60;94.80;;;;;;4944315;29;20023;-72
2023/05/20 09:43:51;;;;;;;6.95;2.67;;;20.60;94.70;;;;;;4941143;28;20038;-71
2023/05/20 09:46:17;;;;;;;6.35;2.45;;;20.60;94.20;;;;;;4935186;29;20024;-73
2023/05/20 09:48:43;;;;;;;7.03;2.63;;;20.70;94.50;;;;;;4948761;29;20015;-74
2023/05/20 09:51:10;;;;;;;5.40;2.67;;;20.90;94.60;;;;;;4953628;29;20390;-72
2023/05/20 09:53:36;;;;;;;4.63;2.33;;;20.90;93.10;;;;;;4953592;29;20443;-73
2023/05/20 09:56:02;;;;;;;5.00;2.58;;;20.90;92.20;;;;;;4953525;29;20051;-71
2023/05/20 09:58:28;;;;;;;5.68;2.40;;;20.90;92.40;;;;;;4953365;28;20058;-71
2023/05/20 10:00:54;;;;;;;5.00;2.20;;;21.00;92.00;;;;;;4948004;28;20544;-71
2023/05/20 10:03:23;;;;;;;4.75;2.47;;;21.00;91.90;;;;;;4951372;29;20019;-72
2023/05/20 10:06:19;;;;;;;5.57;2.22;;;21.00;90.90;;;;;;4949017;29;20411;-72
2023/05/20 10:09:18;;;;;;;;;;;21.10;90.60;;;;;;4945797;29;20050;-72
2023/05/20 10:12:09;;;;;;;5.53;2.22;;;21.00;89.80;;;;;;4929310;29;19914;-72
2023/05/20 10:14:53;;;;;;;3.90;2.17;;;21.10;90.50;;;;;;4942164;29;20055;-71
2023/05/20 10:17:30;;;;;;;3.63;2.40;;;21.10;88.60;;;;;;4953091;28;20018;-71
2023/05/20 10:19:58;;;;;;;3.92;2.20;;;21.10;89.00;;;;;;4951660;28;20024;-72
2023/05/20 10:22:32;;;;;;;8.18;2.35;;;21.10;89.50;;;;;;4951348;29;20074;-72
2023/05/20 10:25:08;;;;;;;7.13;2.33;;;21.10;87.90;;;;;;4949342;29;20027;-71
2023/05/20 10:27:46;;;;;;;5.25;2.60;;;21.10;87.50;;;;;;4952998;29;20039;-72
2023/05/20 10:30:20;;;;;;;5.15;2.22;;;21.10;88.20;;;;;;4952664;28;20082;-72
2023/05/20 10:32:55;;;;;;;4.80;2.55;;;21.20;86.80;;;;;;4949289;29;20016;-73
2023/05/20 10:35:26;;;;;;;5.13;2.25;;;21.20;84.90;;;;;;4950059;29;20025;-74
2023/05/20 10:37:54;;;;;;;3.08;1.90;;;21.30;85.80;;;;;;4938010;28;20087;-72
2023/05/20 10:40:21;;;;;;;7.55;2.20;;;21.40;86.80;;;;;;4947442;29;20031;-71
2023/05/20 10:42:48;;;;;;;4.72;2.28;;;21.50;83.70;;;;;;4935129;29;20028;-73
2023/05/20 10:45:27;;;;;;;4.82;2.20;;;21.50;82.30;;;;;;4934642;29;20028;-72
2023/05/20 10:47:57;;;;;;;4.13;2.45;;;21.40;82.30;;;;;;4946426;29;20027;-72
2023/05/20 10:50:34;;;;;;;9.38;2.63;;;21.20;81.50;;;;;;4954884;28;20027;-72
2023/05/20 10:53:12;;;;;;;3.75;2.00;;;21.20;82.40;;;;;;4953562;29;20374;-71
2023/05/20 10:55:40;;;;;;;5.15;2.35;;;21.20;83.30;;;;;;4952738;29;20040;-72
2023/05/20 10:58:06;;;;;;;4.75;2.40;;;21.20;83.40;;;;;;4955547;29;20025;-72
2023/05/20 11:00:36;;;;;;;4.45;2.45;;;21.20;82.60;;;;;;4950731;29;20071;-72
2023/05/20 11:03:05;;;;;;;6.70;2.40;;;21.20;82.60;;;;;;4955937;28;20015;-71
2023/05/20 11:05:31;;;;;;;6.43;2.50;;;21.30;81.90;;;;;;4942452;29;20407;-71
2023/05/20 11:08:06;;;;;;;5.10;2.25;;;21.40;81.90;;;;;;4955601;29;20028;-72
2023/05/20 11:10:33;;;;;;;3.80;2.17;;;21.40;80.80;;;;;;4956739;28;20114;-72
2023/05/20 11:13:00;;;;;;;5.05;2.25;;;21.50;81.50;;;;;;4945165;28;20034;-72
2023/05/20 11:15:26;;;;;;;8.73;2.10;;;21.50;79.50;;;;;;4946909;28;20024;-72
2023/05/20 11:17:56;;;;;;;9.25;2.47;;;21.50;78.40;;;;;;4949374;29;20391;-72
2023/05/20 11:20:23;;;;;;;4.45;2.30;;;21.50;77.60;;;;;;4954828;28;20031;-72
2023/05/20 11:22:51;;;;;;;5.22;2.65;;;21.50;77.80;;;;;;4954186;28;20463;-73
2023/05/20 11:25:18;;;;;;;5.70;2.50;;;21.50;78.20;;;;;;4951174;29;20034;-73
2023/05/20 11:27:45;;;;;;;8.48;2.30;;;21.60;78.60;;;;;;4950530;28;20031;-72
2023/05/20 11:30:17;;;;;;;6.20;2.30;;;21.80;79.20;;;;;;4949158;28;20024;-72
2023/05/20 11:32:43;;;;;;;5.10;2.58;;;22.00;78.20;;;;;;4955951;29;20499;-72
2023/05/20 11:35:24;;;;;;;5.40;2.35;;;22.10;76.20;;;;;;4955987;28;20078;-72
2023/05/20 11:38:00;;;;;;;5.63;2.55;;;22.20;74.00;;;;;;4950942;28;20020;-72
2023/05/20 11:40:26;;;;;;;9.30;2.80;;;22.40;73.80;;;;;;4941772;29;20024;-72
2023/05/20 11:42:57;;;;;;;7.40;2.53;;;22.40;73.00;;;;;;4955807;28;20019;-72
2023/05/20 11:45:23;;;;;;;6.03;2.70;;;22.30;73.80;;;;;;4942719;28;20036;-74
2023/05/20 11:48:02;;;;;;;6.40;2.38;;;22.40;74.40;;;;;;4943993;29;20470;-74
2023/05/20 11:50:34;;;;;;;8.10;2.40;;;22.50;75.20;;;;;;4954576;28;20038;-74
2023/05/20 11:53:02;;;;;;;3.92;2.30;;;22.70;73.90;;;;;;4953277;28;20087;-75
2023/05/20 11:55:28;;;;;;;4.78;2.53;;;22.70;73.80;;;;;;4952422;28;20043;-73
2023/05/20 11:57:55;;;;;;;5.30;2.42;;;22.80;73.80;;;;;;4955287;28;20035;-74
2023/05/20 12:00:22;;;;;;;6.95;2.90;;;22.70;72.70;;;;;;4955632;28;20039;-72
2023/05/20 12:02:48;;;;;;;9.88;2.47;;;22.60;71.40;;;;;;4955650;28;20102;-72
2023/05/20 12:05:13;;;;;;;4.32;2.35;;;22.40;72.40;;;;;;4955504;29;20103;-73
2023/05/20 12:07:39;;;;;;;5.47;2.70;;;22.40;73.10;;;;;;4955424;29;20172;-72
2023/05/20 12:10:05;;;;;;;5.90;2.65;;;22.40;73.10;;;;;;4945832;28;20031;-72
2023/05/20 12:12:31;;;;;;;19.60;4.35;;;22.40;72.60;;;;;;4955524;28;20032;-74
2023/05/20 12:14:57;;;;;;;13.48;3.53;;;22.30;71.40;;;;;;4944198;29;20027;-74
2023/05/20 12:17:22;;;;;;;7.18;2.70;;;22.20;70.60;;;;;;4955134;28;20043;-74
2023/05/20 12:19:48;;;;;;;5.07;2.70;;;22.10;70.90;;;;;;4953792;28;20023;-74
2023/05/20 12:22:13;;;;;;;5.97;2.70;;;22.00;71.00;;;;;;4953240;29;20023;-74
2023/05/20 12:24:39;;;;;;;5.43;2.42;;;22.00;71.30;;;;;;4953284;29;20023;-73
2023/05/20 12:27:05;;;;;;;5.53;2.60;;;22.00;72.00;;;;;;4954052;29;20450;-73
2023/05/20 12:29:31;;;;;;;9.35;2.70;;;22.10;71.90;;;;;;4951265;29;20024;-73
2023/05/20 12:31:57;;;;;;;6.30;2.47;;;22.20;72.10;;;;;;4952001;29;20059;-73
2023/05/20 12:34:22;;;;;;;9.07;2.95;;;22.20;73.00;;;;;;4950563;29;20068;-73
2023/05/20 12:36:48;;;;;;;4.60;2.30;;;22.30;71.90;;;;;;4949722;29;20046;-73
2023/05/20 12:39:16;;;;;;;4.53;2.50;;;22.50;71.40;;;;;;4950945;29;20019;-74